Time;durP1;ratioP1;P1;durP2;ratioP2;P2;SDS_P1;SDS_P2;PMS_P1;PMS_P2;Temp;Humidity;BMP_temperature;BMP_pressure;BME280_temperature;BME280_humidity;BME280_pressure;Samples;Min_cycle;Max_cycle;Signal;HPM_P1;HPM_P2
2024/04/10 00:00:54;;;;;;;;;13.00;9.50;;;;;;;;5378616;26;11300;-81
2024/04/10 00:03:22;;;;;;;;;9.50;9.50;;;;;;;;5378609;26;8828;-81
2024/04/10 00:06:00;;;;;;;;;13.75;11.00;;;;;;;;5378803;26;8882;-81
2024/04/10 00:08:26;;;;;;;;;13.00;13.00;;;;;;;;5378692;26;11162;-81
2024/04/10 00:10:51;;;;;;;;;13.50;11.75;;;;;;;;5378836;26;11045;-81
2024/04/10 00:13:17;;;;;;;;;13.25;12.25;;;;;;;;5378709;26;8809;-80
2024/04/10 00:15:42;;;;;;;;;15.25;13.00;;;;;;;;5378810;26;8808;-73
2024/04/10 00:18:08;;;;;;;;;12.75;12.75;;;;;;;;5378510;26;8892;-72
2024/04/10 00:20:33;;;;;;;;;13.25;13.00;;;;;;;;5378446;26;8836;-77
2024/04/10 00:22:58;;;;;;;;;16.75;12.75;;;;;;;;5378602;26;8936;-77
2024/04/10 00:25:24;;;;;;;;;13.75;13.50;;;;;;;;5378531;26;8816;-76
2024/04/10 00:27:49;;;;;;;;;13.50;9.00;;;;;;;;5378613;26;8828;-77
2024/04/10 00:30:15;;;;;;;;;12.25;12.25;;;;;;;;5378553;26;9173;-75
2024/04/10 00:32:40;;;;;;;;;14.50;12.50;;;;;;;;5378334;26;8816;-76
2024/04/10 00:35:06;;;;;;;;;13.50;10.25;;;;;;;;5378292;26;11289;-77
2024/04/10 00:37:31;;;;;;;;;6.25;5.00;;;;;;;;5376640;26;8860;-77
2024/04/10 00:39:56;;;;;;;;;11.25;11.25;;;;;;;;5378275;26;8828;-76
2024/04/10 00:42:22;;;;;;;;;8.75;8.75;;;;;;;;5378708;26;8888;-76
2024/04/10 00:44:54;;;;;;;;;14.50;12.75;;;;;;;;5378395;26;8840;-76
2024/04/10 00:47:20;;;;;;;;;12.25;12.25;;;;;;;;5378547;26;11555;-76
2024/04/10 00:49:46;;;;;;;;;11.75;11.75;;;;;;;;5377917;26;12329;-76
2024/04/10 00:52:11;;;;;;;;;13.00;11.00;;;;;;;;5378215;26;11616;-76
2024/04/10 00:54:37;;;;;;;;;12.75;12.50;;;;;;;;5377834;26;11260;-76
2024/04/10 00:57:03;;;;;;;;;8.50;8.50;;;;;;;;5377955;26;8820;-76
2024/04/10 00:59:29;;;;;;;;;14.75;12.00;;;;;;;;5377838;26;8813;-75
2024/04/10 01:01:54;;;;;;;;;12.50;8.25;;;;;;;;5377728;26;11323;-76
2024/04/10 01:04:19;;;;;;;;;9.50;9.50;;;;;;;;5377376;26;8893;-76
2024/04/10 01:06:44;;;;;;;;;9.00;9.00;;;;;;;;5378084;26;8844;-75
2024/04/10 01:09:10;;;;;;;;;11.75;9.50;;;;;;;;5377937;26;8949;-75
2024/04/10 01:11:35;;;;;;;;;9.00;8.25;;;;;;;;5377881;26;8829;-76
2024/04/10 01:14:01;;;;;;;;;12.50;10.00;;;;;;;;5377755;26;9539;-74
2024/04/10 01:16:26;;;;;;;;;8.75;7.00;;;;;;;;5377645;26;8812;-74
2024/04/10 01:18:51;;;;;;;;;12.00;12.00;;;;;;;;5377919;26;8824;-73
2024/04/10 01:21:17;;;;;;;;;12.75;11.00;;;;;;;;5378130;26;8870;-73
2024/04/10 01:23:42;;;;;;;;;13.25;11.00;;;;;;;;5377836;26;8842;-75
2024/04/10 01:26:07;;;;;;;;;13.50;11.75;;;;;;;;5375789;26;8842;-75
2024/04/10 01:28:33;;;;;;;;;9.00;7.50;;;;;;;;5375427;26;8840;-76
2024/04/10 01:30:58;;;;;;;;;11.75;11.00;;;;;;;;5377782;26;8859;-73
2024/04/10 01:33:24;;;;;;;;;12.50;11.00;;;;;;;;5377358;26;8808;-71
2024/04/10 01:35:49;;;;;;;;;14.00;14.00;;;;;;;;5377481;26;9423;-77
2024/04/10 01:38:14;;;;;;;;;12.00;10.25;;;;;;;;5377199;26;8840;-79
2024/04/10 01:40:40;;;;;;;;;11.50;7.75;;;;;;;;5377725;26;8878;-79
2024/04/10 01:43:05;;;;;;;;;12.50;11.00;;;;;;;;5378190;26;8840;-79
2024/04/10 01:45:31;;;;;;;;;8.75;8.50;;;;;;;;5376672;26;8910;-79
2024/04/10 01:47:56;;;;;;;;;14.75;12.25;;;;;;;;5378588;26;8863;-78
2024/04/10 01:50:21;;;;;;;;;9.75;7.75;;;;;;;;5377227;26;8995;-79
2024/04/10 01:52:46;;;;;;;;;9.50;9.25;;;;;;;;5377469;26;8907;-79
2024/04/10 01:55:12;;;;;;;;;10.75;7.00;;;;;;;;5377432;26;8820;-79
2024/04/10 01:57:37;;;;;;;;;6.00;5.25;;;;;;;;5377137;26;8880;-79
2024/04/10 02:00:02;;;;;;;;;6.00;6.00;;;;;;;;5377156;26;8847;-79
2024/04/10 02:02:28;;;;;;;;;5.00;5.00;;;;;;;;5377141;26;8812;-79
2024/04/10 02:04:53;;;;;;;;;7.50;6.00;;;;;;;;5376846;26;8844;-79
2024/04/10 02:07:18;;;;;;;;;9.00;5.50;;;;;;;;5375073;26;8820;-79
2024/04/10 02:09:44;;;;;;;;;4.50;4.50;;;;;;;;5376443;26;8874;-80
2024/04/10 02:12:09;;;;;;;;;4.25;4.00;;;;;;;;5374940;26;8875;-80
2024/04/10 02:14:35;;;;;;;;;3.00;3.00;;;;;;;;5376682;26;9643;-80
2024/04/10 02:17:01;;;;;;;;;2.00;2.00;;;;;;;;5380203;26;8894;-80
2024/04/10 02:19:26;;;;;;;;;1.00;1.00;;;;;;;;5379942;26;11515;-80
2024/04/10 02:21:54;;;;;;;;;3.00;2.00;;;;;;;;5380567;26;8903;-80
2024/04/10 02:24:20;;;;;;;;;5.00;3.00;;;;;;;;5380383;26;8903;-80
2024/04/10 02:26:45;;;;;;;;;1.75;1.75;;;;;;;;5380320;26;11509;-79
2024/04/10 02:29:11;;;;;;;;;2.00;2.00;;;;;;;;5377884;26;8855;-79
2024/04/10 02:31:36;;;;;;;;;2.00;1.00;;;;;;;;5380318;26;8927;-79
2024/04/10 02:34:02;;;;;;;;;7.25;3.25;;;;;;;;5377851;26;9592;-80
2024/04/10 02:36:27;;;;;;;;;3.50;2.50;;;;;;;;5380014;26;8836;-79
2024/04/10 02:38:53;;;;;;;;;2.00;2.00;;;;;;;;5378049;26;8844;-80
2024/04/10 02:41:18;;;;;;;;;1.75;1.00;;;;;;;;5380108;26;8851;-80
2024/04/10 02:43:43;;;;;;;;;1.25;1.00;;;;;;;;5378033;26;8874;-80
2024/04/10 02:46:09;;;;;;;;;2.50;1.75;;;;;;;;5379512;26;9566;-80
2024/04/10 02:48:34;;;;;;;;;2.00;2.00;;;;;;;;5374272;21;8882;-63
2024/04/10 02:51:00;;;;;;;;;1.50;0.50;;;;;;;;5342248;26;8824;-63
2024/04/10 02:53:25;;;;;;;;;1.00;1.00;;;;;;;;5341991;26;8964;-63
2024/04/10 02:55:51;;;;;;;;;2.00;2.00;;;;;;;;5342230;26;8820;-63
2024/04/10 02:58:17;;;;;;;;;1.00;1.00;;;;;;;;5342054;26;8858;-63
2024/04/10 03:00:45;;;;;;;;;1.25;0.25;;;;;;;;5342028;26;8816;-63
2024/04/10 03:03:10;;;;;;;;;1.00;1.00;;;;;;;;5341222;26;11904;-62
2024/04/10 03:05:35;;;;;;;;;0.00;0.00;;;;;;;;5342013;26;11469;-63
2024/04/10 03:08:01;;;;;;;;;0.00;0.00;;;;;;;;5341798;26;8844;-63
2024/04/10 03:10:26;;;;;;;;;0.00;0.00;;;;;;;;5342561;26;8840;-63
2024/04/10 03:12:51;;;;;;;;;0.00;0.00;;;;;;;;5341827;26;9751;-63
2024/04/10 03:15:17;;;;;;;;;0.00;0.00;;;;;;;;5341793;26;8865;-63
2024/04/10 03:17:42;;;;;;;;;0.00;0.00;;;;;;;;5341612;26;9176;-63
2024/04/10 03:20:08;;;;;;;;;0.00;0.00;;;;;;;;5341557;26;8831;-63
2024/04/10 03:22:34;;;;;;;;;0.00;0.00;;;;;;;;5341785;26;8928;-63
2024/04/10 03:24:59;;;;;;;;;1.00;0.00;;;;;;;;5341628;26;11486;-63
2024/04/10 03:27:24;;;;;;;;;0.00;0.00;;;;;;;;5310592;26;8836;-63
2024/04/10 03:29:50;;;;;;;;;0.50;0.00;;;;;;;;5341617;26;8844;-63
2024/04/10 03:32:15;;;;;;;;;0.00;0.00;;;;;;;;5341392;26;8866;-63
2024/04/10 03:34:40;;;;;;;;;0.75;0.75;;;;;;;;5341992;26;8800;-64
2024/04/10 03:37:05;;;;;;;;;0.00;0.00;;;;;;;;5341593;26;9031;-63
2024/04/10 03:39:31;;;;;;;;;0.00;0.00;;;;;;;;5341508;26;8914;-63
2024/04/10 03:41:56;;;;;;;;;0.00;0.00;;;;;;;;5341320;26;8808;-63
2024/04/10 03:44:22;;;;;;;;;0.00;0.00;;;;;;;;5341263;26;8872;-63
2024/04/10 03:46:48;;;;;;;;;0.00;0.00;;;;;;;;5341599;26;8843;-65
2024/04/10 03:49:13;;;;;;;;;0.00;0.00;;;;;;;;5341607;26;11574;-64
2024/04/10 03:51:38;;;;;;;;;1.00;0.00;;;;;;;;5341357;26;9478;-63
2024/04/10 03:54:04;;;;;;;;;1.50;0.00;;;;;;;;5341307;26;8836;-62
2024/04/10 06:39:49;;;;;;;;;2.00;2.00;;;;;;;;5534419;25;13126;-67
2024/04/10 06:42:15;;;;;;;;;4.00;2.00;;;;;;;;5498816;25;11578;-67
2024/04/10 06:44:41;;;;;;;;;3.00;3.00;;;;;;;;5501674;25;12400;-67
2024/04/10 06:47:06;;;;;;;;;2.75;2.75;;;;;;;;5499190;26;8839;-67
2024/04/10 06:49:31;;;;;;;;;3.50;3.00;;;;;;;;5491918;20;8874;-74
2024/04/10 06:51:57;;;;;;;;;3.75;2.00;;;;;;;;5467461;26;8812;-76
2024/04/10 06:54:22;;;;;;;;;3.00;1.75;;;;;;;;5467501;26;8831;-73
2024/04/10 06:56:47;;;;;;;;;2.25;2.00;;;;;;;;5467174;26;8815;-73
2024/04/10 06:59:13;;;;;;;;;1.25;1.25;;;;;;;;5467380;26;8828;-72
2024/04/10 07:01:38;;;;;;;;;1.00;1.00;;;;;;;;5466538;26;8925;-73
2024/04/10 07:04:04;;;;;;;;;0.75;0.75;;;;;;;;5451113;26;8848;-73
2024/04/10 07:06:30;;;;;;;;;1.75;0.75;;;;;;;;5441894;26;8898;-78
2024/04/10 07:08:56;;;;;;;;;3.00;2.00;;;;;;;;5467154;26;8813;-73
2024/04/10 07:11:21;;;;;;;;;7.75;4.00;;;;;;;;5467024;26;12297;-74
2024/04/10 07:13:49;;;;;;;;;2.75;2.75;;;;;;;;5467286;26;8888;-74
2024/04/10 07:16:14;;;;;;;;;2.00;2.00;;;;;;;;5466885;26;8832;-76
2024/04/10 07:18:40;;;;;;;;;5.00;3.00;;;;;;;;5456121;26;11709;-72
2024/04/10 07:21:09;;;;;;;;;5.00;3.00;;;;;;;;5446443;26;8828;-72
2024/04/10 07:23:39;;;;;;;;;4.25;2.00;;;;;;;;5447250;26;8828;-72
2024/04/10 07:26:14;;;;;;;;;11.75;10.00;;;;;;;;5447048;26;11569;-72
2024/04/10 07:28:50;;;;;;;;;3.25;2.00;;;;;;;;5446097;26;11594;-72
2024/04/10 07:31:28;;;;;;;;;6.50;6.50;;;;;;;;5447219;26;11474;-71
2024/04/10 07:33:53;;;;;;;;;4.50;3.25;;;;;;;;5449194;26;11575;-71
2024/04/10 07:36:20;;;;;;;;;2.00;2.00;;;;;;;;5446308;26;11632;-71
2024/04/10 07:38:45;;;;;;;;;2.00;2.00;;;;;;;;5445060;26;8817;-71
2024/04/10 07:41:12;;;;;;;;;1.00;1.00;;;;;;;;5430733;26;11580;-71
2024/04/10 07:43:37;;;;;;;;;1.00;1.00;;;;;;;;5430810;26;8942;-71
2024/04/10 07:46:12;;;;;;;;;2.50;2.00;;;;;;;;5430464;26;11539;-71
2024/04/10 07:48:38;;;;;;;;;2.00;2.00;;;;;;;;5431329;26;8886;-71
2024/04/10 07:51:04;;;;;;;;;1.00;1.00;;;;;;;;5414910;26;11552;-71
2024/04/10 07:53:29;;;;;;;;;2.00;1.00;;;;;;;;5415264;26;11516;-71
2024/04/10 07:55:54;;;;;;;;;1.00;1.00;;;;;;;;5415491;26;12241;-71
2024/04/10 07:58:20;;;;;;;;;2.00;2.00;;;;;;;;5414858;26;8848;-71
2024/04/10 08:00:45;;;;;;;;;2.00;2.00;;;;;;;;5415278;26;8832;-72
2024/04/10 08:03:10;;;;;;;;;4.75;3.50;;;;;;;;5414769;26;8840;-73
2024/04/10 08:05:35;;;;;;;;;4.00;4.00;;;;;;;;5415068;26;8824;-77
2024/04/10 08:08:01;;;;;;;;;4.25;4.25;;;;;;;;5440333;26;8915;-73
2024/04/10 08:10:26;;;;;;;;;4.00;4.00;;;;;;;;5450360;26;8828;-76
2024/04/10 08:12:54;;;;;;;;;5.00;5.00;;;;;;;;5450337;26;8812;-73
2024/04/10 08:15:19;;;;;;;;;5.25;5.25;;;;;;;;5450262;26;9549;-73
2024/04/10 08:17:45;;;;;;;;;5.00;5.00;;;;;;;;5449874;26;11489;-71
2024/04/10 08:20:11;;;;;;;;;4.75;4.75;;;;;;;;5450268;26;8817;-73
2024/04/10 08:22:36;;;;;;;;;5.00;5.00;;;;;;;;5447016;26;11572;-74
2024/04/10 08:25:01;;;;;;;;;6.50;6.00;;;;;;;;5449632;26;8820;-71
2024/04/10 08:27:27;;;;;;;;;9.00;7.75;;;;;;;;5442720;26;8840;-76
2024/04/10 08:29:53;;;;;;;;;4.75;4.75;;;;;;;;5323271;26;13216;-76
2024/04/10 08:32:18;;;;;;;;;5.75;5.25;;;;;;;;5254492;26;196487;-76
2024/04/10 08:34:43;;;;;;;;;4.50;4.50;;;;;;;;5343336;26;12396;-76
2024/04/10 08:37:09;;;;;;;;;5.25;5.25;;;;;;;;5342834;26;8859;-77
2024/04/10 08:39:34;;;;;;;;;4.00;4.00;;;;;;;;5343405;26;8950;-77
2024/04/10 08:41:59;;;;;;;;;6.00;4.75;;;;;;;;5342787;26;8871;-77
2024/04/10 08:44:25;;;;;;;;;5.00;3.50;;;;;;;;5343402;26;9049;-80
2024/04/10 08:46:52;;;;;;;;;4.00;3.25;;;;;;;;5343380;26;8864;-78
2024/04/10 08:49:18;;;;;;;;;4.50;4.00;;;;;;;;5343617;26;11565;-79
2024/04/10 08:51:44;;;;;;;;;6.50;5.00;;;;;;;;5344099;26;11246;-81
2024/04/10 08:54:11;;;;;;;;;6.00;5.00;;;;;;;;5343075;26;8896;-78
2024/04/10 08:56:36;;;;;;;;;2.75;2.75;;;;;;;;5343515;26;12269;-80
2024/04/10 08:59:02;;;;;;;;;2.75;1.50;;;;;;;;5343583;26;11588;-80
2024/04/10 09:01:28;;;;;;;;;4.00;1.00;;;;;;;;5342407;26;8832;-81
2024/04/10 09:03:53;;;;;;;;;15.00;14.25;;;;;;;;5343136;26;9608;-80
2024/04/10 09:06:19;;;;;;;;;5.00;4.00;;;;;;;;5343695;26;8863;-78
2024/04/10 09:08:55;;;;;;;;;7.00;7.00;;;;;;;;5343527;26;8844;-78
2024/04/10 09:11:23;;;;;;;;;17.00;10.75;;;;;;;;5343529;26;8851;-81
2024/04/10 09:13:59;;;;;;;;;15.00;9.25;;;;;;;;5342750;26;11662;-78
2024/04/10 09:16:24;;;;;;;;;3.50;3.50;;;;;;;;5342205;26;11561;-85
2024/04/10 09:18:49;;;;;;;;;3.50;3.00;;;;;;;;5341013;26;12409;-76
2024/04/10 09:21:15;;;;;;;;;5.75;4.00;;;;;;;;5342686;26;8848;-79
2024/04/10 09:23:40;;;;;;;;;5.00;5.00;;;;;;;;5342062;26;8938;-80
2024/04/10 09:26:05;;;;;;;;;3.00;3.00;;;;;;;;5342639;26;8883;-81
2024/04/10 09:28:32;;;;;;;;;3.00;3.00;;;;;;;;5343347;26;8852;-81
2024/04/10 09:30:57;;;;;;;;;5.00;3.00;;;;;;;;5342880;26;9510;-83
2024/04/10 09:33:22;;;;;;;;;2.50;2.50;;;;;;;;5343208;26;11382;-80
2024/04/10 09:35:48;;;;;;;;;4.00;3.00;;;;;;;;5343392;26;8851;-72
2024/04/10 09:38:15;;;;;;;;;6.00;2.00;;;;;;;;5342767;26;9483;-73
2024/04/10 09:40:44;;;;;;;;;2.00;2.00;;;;;;;;5343034;26;8931;-73
2024/04/10 09:43:13;;;;;;;;;2.00;2.00;;;;;;;;5342600;26;11592;-74
2024/04/10 09:45:43;;;;;;;;;5.25;3.00;;;;;;;;5343339;26;11710;-73
2024/04/10 09:48:11;;;;;;;;;2.25;2.25;;;;;;;;5343071;26;11546;-75
2024/04/10 09:50:37;;;;;;;;;3.00;1.25;;;;;;;;5342972;26;12264;-75
2024/04/10 09:53:03;;;;;;;;;2.00;1.75;;;;;;;;5342782;26;11677;-76
2024/04/10 09:55:32;;;;;;;;;1.75;1.00;;;;;;;;5342510;26;11698;-72
2024/04/10 09:57:57;;;;;;;;;1.75;1.00;;;;;;;;5342829;26;11384;-77
2024/04/10 10:00:23;;;;;;;;;2.50;2.00;;;;;;;;5342567;26;11661;-71
2024/04/10 10:02:48;;;;;;;;;13.50;13.00;;;;;;;;5342802;26;8864;-78
2024/04/10 10:05:23;;;;;;;;;18.50;11.25;;;;;;;;5339389;26;8845;-69
2024/04/10 10:07:49;;;;;;;;;3.00;3.00;;;;;;;;5339347;26;8864;-75
2024/04/10 10:10:16;;;;;;;;;6.25;3.00;;;;;;;;5338982;26;11580;-75
2024/04/10 10:12:41;;;;;;;;;2.00;2.00;;;;;;;;5337453;26;11552;-75
2024/04/10 10:15:07;;;;;;;;;2.00;1.00;;;;;;;;5359590;26;11631;-76
2024/04/10 10:17:32;;;;;;;;;1.25;1.25;;;;;;;;5338642;26;8860;-72
2024/04/10 10:19:58;;;;;;;;;1.00;1.00;;;;;;;;5336438;26;8910;-74
2024/04/10 10:22:24;;;;;;;;;2.00;2.00;;;;;;;;5340331;26;8854;-70
2024/04/10 10:24:59;;;;;;;;;2.75;2.25;;;;;;;;5341337;26;8851;-73
2024/04/10 10:27:24;;;;;;;;;4.50;2.00;;;;;;;;5342090;26;8890;-74
2024/04/10 10:29:50;;;;;;;;;1.00;1.00;;;;;;;;5341207;26;11564;-73
2024/04/10 10:32:19;;;;;;;;;2.00;1.00;;;;;;;;5366121;26;8836;-72
2024/04/10 10:34:45;;;;;;;;;0.75;0.00;;;;;;;;5369121;26;9718;-70
2024/04/10 10:37:10;;;;;;;;;1.00;0.00;;;;;;;;5339852;26;11533;-72
2024/04/10 10:39:42;;;;;;;;;0.00;0.00;;;;;;;;5369622;26;8942;-72
2024/04/10 10:42:07;;;;;;;;;1.00;1.00;;;;;;;;5337804;26;8864;-76
2024/04/10 10:44:32;;;;;;;;;0.00;0.00;;;;;;;;5342529;26;11584;-85
2024/04/10 10:46:58;;;;;;;;;0.00;0.00;;;;;;;;5342306;26;9015;-73
2024/04/10 10:49:26;;;;;;;;;0.00;0.00;;;;;;;;5341765;26;8887;-73
2024/04/10 10:51:55;;;;;;;;;0.00;0.00;;;;;;;;5342348;26;8867;-72
2024/04/10 10:54:21;;;;;;;;;0.00;0.00;;;;;;;;5342035;26;11309;-76
2024/04/10 10:56:46;;;;;;;;;0.75;0.00;;;;;;;;5341902;26;11541;-78
2024/04/10 10:59:13;;;;;;;;;0.00;0.00;;;;;;;;5339850;26;8868;-76
2024/04/10 11:01:39;;;;;;;;;0.00;0.00;;;;;;;;5313203;26;8930;-77
2024/04/10 11:04:14;;;;;;;;;0.00;0.00;;;;;;;;5309648;26;11910;-76
2024/04/10 11:06:39;;;;;;;;;1.00;0.00;;;;;;;;5341069;26;8848;-80
2024/04/10 11:09:05;;;;;;;;;2.00;0.00;;;;;;;;5335783;26;11335;-78
2024/04/10 11:11:31;;;;;;;;;0.00;0.00;;;;;;;;5324932;26;8844;-78
2024/04/10 11:13:56;;;;;;;;;0.00;0.00;;;;;;;;5324018;26;10932;-76
2024/04/10 11:16:25;;;;;;;;;0.00;0.00;;;;;;;;5285405;26;74987;-78
2024/04/10 11:18:51;;;;;;;;;0.00;0.00;;;;;;;;5356681;26;8866;-78
2024/04/10 11:21:16;;;;;;;;;1.00;1.00;;;;;;;;5356078;26;10937;-78
2024/04/10 11:23:41;;;;;;;;;1.00;1.00;;;;;;;;5355219;26;8850;-78
2024/04/10 11:26:07;;;;;;;;;0.00;0.00;;;;;;;;5361900;26;8843;-79
2024/04/10 11:28:32;;;;;;;;;1.00;1.00;;;;;;;;5358798;26;9584;-81
2024/04/10 11:30:57;;;;;;;;;0.00;0.00;;;;;;;;5358294;26;8957;-78
2024/04/10 11:33:22;;;;;;;;;1.00;1.00;;;;;;;;5368126;26;8914;-76
2024/04/10 11:35:48;;;;;;;;;1.75;1.00;;;;;;;;5375676;26;8840;-79
2024/04/10 11:38:13;;;;;;;;;1.00;1.00;;;;;;;;5372417;26;8888;-81
2024/04/10 11:40:38;;;;;;;;;1.00;1.00;;;;;;;;5379615;26;8860;-82
2024/04/10 11:43:03;;;;;;;;;0.00;0.00;;;;;;;;5379231;26;9639;-79
2024/04/10 11:45:29;;;;;;;;;0.25;0.00;;;;;;;;5364002;26;8912;-80
2024/04/10 11:47:55;;;;;;;;;0.50;0.50;;;;;;;;5362556;26;8844;-79
2024/04/10 11:50:21;;;;;;;;;0.00;0.00;;;;;;;;5374697;26;8952;-80
2024/04/10 11:52:46;;;;;;;;;1.25;0.75;;;;;;;;5385766;26;10646;-81
2024/04/10 11:55:12;;;;;;;;;0.00;0.00;;;;;;;;5344743;26;8840;-79
2024/04/10 11:57:37;;;;;;;;;0.00;0.00;;;;;;;;5371577;26;8832;-81
2024/04/10 12:00:08;;;;;;;;;1.00;1.00;;;;;;;;5344832;26;11138;-80
2024/04/10 12:02:33;;;;;;;;;2.00;1.00;;;;;;;;5344505;26;8917;-82
2024/04/10 12:05:01;;;;;;;;;2.00;0.75;;;;;;;;5344777;26;11330;-76
2024/04/10 12:07:26;;;;;;;;;0.00;0.00;;;;;;;;5361017;26;11032;-79
2024/04/10 12:09:52;;;;;;;;;1.25;0.00;;;;;;;;5340988;26;11242;-79
2024/04/10 12:12:17;;;;;;;;;0.00;0.00;;;;;;;;5236606;26;78947;-80
2024/04/10 12:14:42;;;;;;;;;0.50;0.00;;;;;;;;5379358;26;8972;-80
2024/04/10 12:17:08;;;;;;;;;0.00;0.00;;;;;;;;5376845;26;8856;-78
2024/04/10 12:19:33;;;;;;;;;0.00;0.00;;;;;;;;5379282;26;8833;-78
2024/04/10 12:21:59;;;;;;;;;2.00;2.00;;;;;;;;5379274;26;8832;-80
2024/04/10 12:24:24;;;;;;;;;0.00;0.00;;;;;;;;5378980;26;8867;-79
2024/04/10 12:26:49;;;;;;;;;0.00;0.00;;;;;;;;5377225;26;8812;-76
2024/04/10 12:29:14;;;;;;;;;1.00;1.00;;;;;;;;5379038;26;8840;-76
2024/04/10 12:31:40;;;;;;;;;1.00;1.00;;;;;;;;5378785;26;8879;-77
2024/04/10 12:34:05;;;;;;;;;1.00;1.00;;;;;;;;5378770;26;8872;-80
2024/04/10 12:39:16;;;;;;;;;1.75;1.00;;;;;;;;5378651;26;8836;-80
2024/04/10 12:41:41;;;;;;;;;1.00;1.00;;;;;;;;5378770;26;10940;-76
2024/04/10 12:44:19;;;;;;;;;1.00;1.00;;;;;;;;5378801;26;11194;-75
2024/04/10 12:46:45;;;;;;;;;1.00;1.00;;;;;;;;5378514;26;8928;-78
2024/04/10 12:49:10;;;;;;;;;0.75;0.75;;;;;;;;5374570;26;10488;-74
2024/04/10 12:51:36;;;;;;;;;1.75;1.00;;;;;;;;5374268;26;11693;-75
2024/04/10 12:54:01;;;;;;;;;3.00;1.50;;;;;;;;5377102;26;8936;-76
2024/04/10 12:56:26;;;;;;;;;1.00;0.00;;;;;;;;5378494;26;8829;-75
2024/04/10 12:58:51;;;;;;;;;1.00;1.00;;;;;;;;5376787;26;8856;-75
2024/04/10 13:01:17;;;;;;;;;0.50;0.50;;;;;;;;5378151;26;8820;-74
2024/04/10 13:03:42;;;;;;;;;1.00;1.00;;;;;;;;5377656;26;8851;-74
2024/04/10 13:06:08;;;;;;;;;0.75;0.00;;;;;;;;5377402;26;8844;-74
2024/04/10 13:08:33;;;;;;;;;2.00;0.50;;;;;;;;5378101;26;8952;-73
2024/04/10 13:11:06;;;;;;;;;1.25;0.25;;;;;;;;5378663;26;8904;-75
2024/04/10 13:13:32;;;;;;;;;0.50;0.50;;;;;;;;5378002;26;8813;-74
2024/04/10 13:16:01;;;;;;;;;0.00;0.00;;;;;;;;5378388;26;10959;-74
2024/04/10 13:18:26;;;;;;;;;1.00;1.00;;;;;;;;5377943;26;8844;-75
2024/04/10 13:20:57;;;;;;;;;0.00;0.00;;;;;;;;5378297;26;10670;-73
2024/04/10 13:23:23;;;;;;;;;1.25;1.00;;;;;;;;5377967;26;8871;-74
2024/04/10 13:26:02;;;;;;;;;0.50;0.00;;;;;;;;5376666;26;10715;-74
2024/04/10 13:28:27;;;;;;;;;0.50;0.50;;;;;;;;5377930;26;10564;-74
2024/04/10 13:30:52;;;;;;;;;1.00;1.00;;;;;;;;5378481;26;10496;-76
2024/04/10 13:33:19;;;;;;;;;4.00;0.00;;;;;;;;5378585;26;8848;-78
2024/04/10 13:35:44;;;;;;;;;1.75;0.00;;;;;;;;5378589;26;8828;-80
2024/04/10 13:38:10;;;;;;;;;1.75;1.75;;;;;;;;5378153;26;10316;-77
2024/04/10 13:40:35;;;;;;;;;3.00;1.00;;;;;;;;5378350;26;8855;-77
2024/04/10 13:43:00;;;;;;;;;5.00;5.00;;;;;;;;5375864;26;8875;-76
2024/04/10 13:45:26;;;;;;;;;3.00;2.00;;;;;;;;5373652;26;8899;-78
2024/04/10 13:47:51;;;;;;;;;5.00;3.00;;;;;;;;5342058;26;8848;-77
2024/04/10 13:50:17;;;;;;;;;3.00;3.00;;;;;;;;5370435;26;9582;-76
2024/04/10 13:52:43;;;;;;;;;1.00;1.00;;;;;;;;5370357;26;8868;-79
2024/04/10 13:55:10;;;;;;;;;2.75;2.00;;;;;;;;5343946;26;8824;-77
2024/04/10 13:57:35;;;;;;;;;3.00;3.00;;;;;;;;5371620;26;11068;-82
2024/04/10 14:00:00;;;;;;;;;3.00;2.00;;;;;;;;5378258;26;10698;-78
2024/04/10 14:02:25;;;;;;;;;1.00;1.00;;;;;;;;5377951;26;8809;-80
2024/04/10 14:04:51;;;;;;;;;2.00;2.00;;;;;;;;5377861;26;9673;-79
2024/04/10 14:07:16;;;;;;;;;3.00;3.00;;;;;;;;5377856;26;8840;-80
2024/04/10 14:09:41;;;;;;;;;4.25;2.00;;;;;;;;5377345;26;9594;-80
2024/04/10 14:12:07;;;;;;;;;3.00;2.00;;;;;;;;5378245;26;8812;-79
2024/04/10 14:14:34;;;;;;;;;1.00;1.00;;;;;;;;5375622;26;8864;-80
2024/04/10 14:17:00;;;;;;;;;1.00;1.00;;;;;;;;5377257;26;8864;-80
2024/04/10 14:19:26;;;;;;;;;2.00;1.00;;;;;;;;5377889;26;10308;-79
2024/04/10 14:21:51;;;;;;;;;1.00;1.00;;;;;;;;5377673;26;10225;-80
2024/04/10 14:24:17;;;;;;;;;1.00;1.00;;;;;;;;5375355;26;8862;-80
2024/04/10 14:26:42;;;;;;;;;1.00;1.00;;;;;;;;5378290;26;8856;-78
2024/04/10 14:29:07;;;;;;;;;3.75;3.50;;;;;;;;5377102;26;8843;-74
2024/04/10 14:31:32;;;;;;;;;3.75;3.00;;;;;;;;5377414;26;8848;-74
2024/04/10 14:33:58;;;;;;;;;3.75;3.75;;;;;;;;5376623;26;8856;-74
2024/04/10 14:36:23;;;;;;;;;4.00;3.00;;;;;;;;5376157;26;8836;-75
2024/04/10 14:38:49;;;;;;;;;3.75;2.25;;;;;;;;5375616;26;8840;-73
2024/04/10 14:41:14;;;;;;;;;4.00;4.00;;;;;;;;5377505;26;8931;-78
2024/04/10 14:43:39;;;;;;;;;3.00;3.00;;;;;;;;5377321;26;8824;-76
2024/04/10 14:46:08;;;;;;;;;3.00;3.00;;;;;;;;5377345;26;8854;-74
2024/04/10 14:48:35;;;;;;;;;3.00;3.00;;;;;;;;5377291;26;9573;-78
2024/04/10 14:51:01;;;;;;;;;4.00;3.00;;;;;;;;5288865;26;173045;-73
2024/04/10 14:53:27;;;;;;;;;3.25;1.00;;;;;;;;5361887;26;10628;-71
2024/04/10 14:56:07;;;;;;;;;2.75;2.00;;;;;;;;5329170;26;8808;-74
2024/04/10 14:58:33;;;;;;;;;2.00;2.00;;;;;;;;5333673;26;8832;-78
2024/04/10 15:00:58;;;;;;;;;2.00;2.00;;;;;;;;5321694;26;10119;-74
2024/04/10 15:03:23;;;;;;;;;2.75;2.75;;;;;;;;5310822;26;8840;-73
2024/04/10 15:05:48;;;;;;;;;2.00;2.00;;;;;;;;5310303;26;8852;-72
2024/04/10 15:08:14;;;;;;;;;2.75;2.75;;;;;;;;5310112;26;8906;-72
2024/04/10 15:10:41;;;;;;;;;4.25;3.00;;;;;;;;5310935;26;9562;-73
2024/04/10 15:13:06;;;;;;;;;2.00;2.00;;;;;;;;5311116;26;8817;-73
2024/04/10 15:15:32;;;;;;;;;3.00;3.00;;;;;;;;5307281;27;10494;-73
2024/04/10 15:17:57;;;;;;;;;2.00;2.00;;;;;;;;5307864;27;8887;-73
2024/04/10 15:20:22;;;;;;;;;4.25;3.00;;;;;;;;5308587;26;9541;-73
2024/04/10 15:22:49;;;;;;;;;2.00;2.00;;;;;;;;5308020;26;8859;-73
2024/04/10 15:25:14;;;;;;;;;2.00;2.00;;;;;;;;5307923;26;8836;-73
2024/04/10 15:27:40;;;;;;;;;4.00;2.75;;;;;;;;5309095;26;10413;-73
2024/04/10 15:30:06;;;;;;;;;1.00;1.00;;;;;;;;5310271;26;8870;-73
2024/04/10 15:32:31;;;;;;;;;4.00;1.00;;;;;;;;5310534;26;8866;-73
2024/04/10 15:34:57;;;;;;;;;5.00;2.75;;;;;;;;5310789;26;10130;-73
2024/04/10 15:37:22;;;;;;;;;2.75;2.75;;;;;;;;5326193;26;8856;-73
2024/04/10 15:39:48;;;;;;;;;3.50;2.75;;;;;;;;5345084;26;8832;-73
2024/04/10 15:42:14;;;;;;;;;2.25;2.00;;;;;;;;5343231;26;8850;-73
2024/04/10 15:44:41;;;;;;;;;2.00;2.00;;;;;;;;5345420;26;10519;-74
2024/04/10 15:47:06;;;;;;;;;1.75;1.00;;;;;;;;5345051;26;10357;-73
2024/04/10 15:49:32;;;;;;;;;2.50;2.00;;;;;;;;5345140;26;8864;-73
2024/04/10 15:51:57;;;;;;;;;2.00;2.00;;;;;;;;5343097;26;8836;-69
2024/04/10 15:54:22;;;;;;;;;2.00;2.00;;;;;;;;5345152;26;8824;-73
2024/04/10 15:56:48;;;;;;;;;4.00;3.50;;;;;;;;5341359;26;9505;-73
2024/04/10 15:59:13;;;;;;;;;6.25;4.25;;;;;;;;5369015;26;8864;-73
2024/04/10 16:01:39;;;;;;;;;3.75;3.75;;;;;;;;5342339;26;8880;-73
2024/04/10 16:04:04;;;;;;;;;5.50;5.00;;;;;;;;5338953;26;10138;-72
2024/04/10 16:06:29;;;;;;;;;3.50;3.50;;;;;;;;5333323;26;236393;-72
2024/04/10 16:08:55;;;;;;;;;5.25;4.00;;;;;;;;5343506;26;8867;-72
2024/04/10 16:12:45;;;;;;;;;4.00;4.00;;;;;;;;5535897;25;13123;-74
2024/04/10 16:15:10;;;;;;;;;4.25;3.00;;;;;;;;5503539;25;10916;-75
2024/04/10 16:17:36;;;;;;;;;4.00;4.00;;;;;;;;5503773;25;8836;-76
2024/04/10 16:20:01;;;;;;;;;2.50;2.50;;;;;;;;5502414;26;9577;-77
2024/04/10 16:22:26;;;;;;;;;4.00;3.00;;;;;;;;5503979;25;8836;-76
2024/04/10 16:24:52;;;;;;;;;4.50;4.50;;;;;;;;5532564;25;8824;-76
2024/04/10 16:27:17;;;;;;;;;1.50;1.50;;;;;;;;5539852;25;8832;-76
2024/04/10 16:29:43;;;;;;;;;2.50;2.50;;;;;;;;5540952;25;9595;-75
2024/04/10 16:32:08;;;;;;;;;3.75;3.75;;;;;;;;5541281;25;8843;-74
2024/04/10 16:34:33;;;;;;;;;4.25;3.50;;;;;;;;5502025;25;8836;-75
2024/04/10 16:36:58;;;;;;;;;3.00;3.00;;;;;;;;5502782;25;8852;-72
2024/04/10 16:39:24;;;;;;;;;4.00;3.00;;;;;;;;5501470;26;8847;-74
2024/04/10 16:41:49;;;;;;;;;8.00;8.00;;;;;;;;5503219;25;8967;-77
2024/04/10 16:44:14;;;;;;;;;2.00;2.00;;;;;;;;5499373;25;8860;-78
2024/04/10 16:46:39;;;;;;;;;3.00;2.25;;;;;;;;5504046;25;8819;-81
2024/04/10 16:49:06;;;;;;;;;4.00;4.00;;;;;;;;5503276;25;8875;-76
2024/04/10 16:51:31;;;;;;;;;5.00;4.00;;;;;;;;5501003;25;8885;-78
2024/04/10 16:53:57;;;;;;;;;5.00;2.00;;;;;;;;5498466;25;11472;-77
2024/04/10 16:56:22;;;;;;;;;2.00;2.00;;;;;;;;5501203;25;8831;-79
2024/04/10 16:58:47;;;;;;;;;4.50;4.00;;;;;;;;5502188;25;8852;-73
2024/04/10 17:01:13;;;;;;;;;5.75;4.75;;;;;;;;5497789;25;8832;-73
2024/04/10 17:03:39;;;;;;;;;3.00;2.00;;;;;;;;5500853;25;8832;-74
2024/04/10 17:06:04;;;;;;;;;3.75;3.75;;;;;;;;5501262;25;8862;-74
2024/04/10 17:08:30;;;;;;;;;1.50;1.00;;;;;;;;5502611;25;11238;-74
2024/04/10 17:10:55;;;;;;;;;1.50;1.50;;;;;;;;5503072;25;8923;-73
2024/04/10 17:13:20;;;;;;;;;1.00;1.00;;;;;;;;5501820;25;8862;-79
2024/04/10 17:15:45;;;;;;;;;7.00;6.00;;;;;;;;5500095;25;8836;-76
2024/04/10 17:23:56;;;;;;;;;4.50;2.50;;;;;;;;5481737;25;11134;-76
2024/04/10 17:26:22;;;;;;;;;5.00;5.00;;;;;;;;5482921;26;11148;-75
2024/04/10 17:28:50;;;;;;;;;22.75;20.50;;;;;;;;5486463;26;8856;-74
2024/04/10 17:31:18;;;;;;;;;19.75;12.25;;;;;;;;5484750;26;11565;-74
2024/04/10 17:33:44;;;;;;;;;69.75;55.25;;;;;;;;5484479;26;11280;-75
2024/04/10 17:36:09;;;;;;;;;14.25;10.00;;;;;;;;5484225;26;11642;-75